This is the latest recevied weather packets stored in our database for station/object KJ5JYX. If no packets are shown the sender has not sent any weather packets the latest 10 day(s).
| Time | Temp. | Humidity | Pressure | Rain* | Wind** | Luminosity | Snow |
|---|---|---|---|---|---|---|---|
| 1777922551 | 27.78° C | 62% | 1012.6 hPa | 0 mm | - | 590 W/m² | - |
| 1777922249 | 27.22° C | 60% | 1012.7 hPa | 0 mm | - | 668 W/m² | - |
| 1777921946 | 27.22° C | 61% | 1012.6 hPa | 0 mm | - | 565 W/m² | - |
| 1777921641 | 27.22° C | 61% | 1012.6 hPa | 0 mm | - | 483 W/m² | - |
| 1777921035 | 26.67° C | 62% | 1012.8 hPa | 0 mm | - | 762 W/m² | - |
| 1777919516 | 27.22° C | 61% | 1013.2 hPa | 0 mm | - | 511 W/m² | - |
| 1777919214 | 26.67° C | 65% | 1013.2 hPa | 0 mm | - | 687 W/m² | - |
| 1777918912 | 26.67° C | 63% | 1013.5 hPa | 0 mm | - | 447 W/m² | - |
| 1777918307 | 26.67° C | 64% | 1014 hPa | 0 mm | - | 642 W/m² | - |
| 1777918005 | 26.11° C | 65% | 1013.9 hPa | 0 mm | - | 648 W/m² | - |
| 1777917704 | 25.56° C | 65% | 1014.1 hPa | 0 mm | - | 261 W/m² | - |
| 1777917401 | 25° C | 69% | 1014.3 hPa | 0 mm | - | 499 W/m² | - |
| 1777916189 | 25° C | 69% | 1014.1 hPa | 0 mm | - | 613 W/m² | - |
| 1777915582 | 24.44° C | 69% | 1014.2 hPa | 0 mm | - | 310 W/m² | - |
| 1777914369 | 23.33° C | 70% | 1014.6 hPa | 0 mm | - | 789 W/m² | - |
| 1777914067 | 23.33° C | 72% | 1014.8 hPa | 0 mm | - | 466 W/m² | - |
| 1777911638 | 21.67° C | 77% | 1015.3 hPa | 0 mm | - | 183 W/m² | - |
| 1777910122 | 21.67° C | 75% | 1015.5 hPa | 0 mm | - | 185 W/m² | - |
| 1777907089 | 21.67° C | 75% | 1015.4 hPa | 0 mm | - | 209 W/m² | - |
| 1777905574 | 20° C | 78% | 1015.9 hPa | 0 mm | - | 100 W/m² | - |
| 1777905271 | 20.56° C | 77% | 1015.6 hPa | 0 mm | - | 142 W/m² | - |
| 1777904968 | 20.56° C | 77% | 1015.7 hPa | 0 mm | - | 173 W/m² | - |
| 1777904666 | 20° C | 78% | 1015.7 hPa | 0 mm | - | 157 W/m² | - |
| 1777904059 | 20° C | 78% | 1015.5 hPa | 0 mm | - | 99 W/m² | - |
| 1777903756 | 20° C | 79% | 1015.7 hPa | 0 mm | - | 95 W/m² | - |
* Rain latest hour (hover to see other rain measurements)
** Current wind speed in m/s (hover to see current wind gust speed)